Time,TemperatureF,DewpointF,PressureIn,WindDirection,WindDirectionDegrees,WindSpeedMPH,WindSpeedGustMPH,Humidity,HourlyPrecipIn,Conditions,Clouds,dailyrainin,SoftwareType,DateUTC
2013-01-03 00:02:00,16.0,13.0,30.25,WNW,285,0.0,0.0,88,0.00,,,0.04,,2013-01-03 06:02:00,
2013-01-03 00:12:00,16.0,13.0,30.25,WNW,285,0.0,0.0,88,0.00,,,0.04,,2013-01-03 06:12:00,
2013-01-03 00:22:00,13.0,10.0,30.26,WNW,285,0.0,0.0,88,0.00,,,0.04,,2013-01-03 06:22:00,
2013-01-03 00:32:00,15.0,12.0,30.25,WNW,284,0.0,0.0,89,0.00,,,0.04,,2013-01-03 06:32:00,
2013-01-03 00:42:00,15.0,12.0,30.25,WNW,284,0.0,0.0,89,0.00,,,0.04,,2013-01-03 06:42:00,
2013-01-03 00:52:00,15.0,12.0,30.26,WNW,284,0.0,0.0,89,0.00,,,0.04,,2013-01-03 06:52:00,
2013-01-03 01:02:00,15.0,12.0,30.26,WNW,285,0.0,0.0,89,0.00,,,0.04,,2013-01-03 07:02:00,
2013-01-03 01:12:00,15.0,12.0,30.26,WNW,285,0.0,0.0,89,0.00,,,0.04,,2013-01-03 07:12:00,
2013-01-03 01:22:00,15.0,12.0,30.27,South,170,0.0,0.0,89,0.00,,,0.04,,2013-01-03 07:22:00,
2013-01-03 01:32:00,15.0,12.0,30.27,South,169,0.0,0.0,89,0.00,,,0.04,,2013-01-03 07:32:00,
2013-01-03 01:42:00,15.0,12.0,30.27,South,169,0.0,0.0,89,0.00,,,0.04,,2013-01-03 07:42:00,
2013-01-03 01:52:00,14.0,11.0,30.26,South,170,0.0,0.0,89,0.00,,,0.04,,2013-01-03 07:52:00,
2013-01-03 02:02:00,15.0,12.0,30.27,South,170,0.0,0.0,89,0.00,,,0.04,,2013-01-03 08:02:00,
2013-01-03 02:12:00,15.0,12.0,30.27,South,170,0.0,0.0,89,0.00,,,0.04,,2013-01-03 08:12:00,
2013-01-03 02:22:00,15.0,12.0,30.27,South,170,0.0,0.0,89,0.00,,,0.04,,2013-01-03 08:22:00,
2013-01-03 02:32:00,15.0,12.0,30.27,South,169,0.0,0.0,89,0.00,,,0.04,,2013-01-03 08:32:00,
2013-01-03 02:42:00,15.0,12.0,30.27,South,169,0.0,0.0,89,0.00,,,0.04,,2013-01-03 08:42:00,
2013-01-03 02:52:00,15.0,12.0,30.27,South,170,0.0,0.0,89,0.00,,,0.04,,2013-01-03 08:52:00,
2013-01-03 03:02:00,14.0,11.0,30.28,South,170,0.0,0.0,88,0.00,,,0.04,,2013-01-03 09:02:00,
2013-01-03 03:12:00,14.0,11.0,30.28,South,170,0.0,0.0,88,0.00,,,0.04,,2013-01-03 09:12:00,
2013-01-03 03:22:00,14.0,11.0,30.29,South,169,0.0,0.0,88,0.00,,,0.04,,2013-01-03 09:22:00,
2013-01-03 03:33:00,15.0,12.0,30.28,SE,140,0.0,0.0,89,0.00,,,0.04,,2013-01-03 09:33:00,
2013-01-03 03:43:00,15.0,12.0,30.28,SE,140,0.0,0.0,89,0.00,,,0.04,,2013-01-03 09:43:00,
2013-01-03 03:52:00,14.0,11.0,30.29,SE,140,0.0,0.0,88,0.00,,,0.04,,2013-01-03 09:52:00,
2013-01-03 04:02:00,10.0,7.0,30.29,SE,140,0.0,0.0,86,0.00,,,0.04,,2013-01-03 10:02:00,
2013-01-03 04:12:00,10.0,7.0,30.29,SE,140,0.0,0.0,86,0.00,,,0.04,,2013-01-03 10:12:00,
2013-01-03 04:22:00,9.0,6.0,30.29,SE,140,0.0,0.0,86,0.00,,,0.04,,2013-01-03 10:22:00,
2013-01-03 04:32:00,11.0,8.0,30.29,SE,140,0.0,0.0,88,0.00,,,0.04,,2013-01-03 10:32:00,
2013-01-03 04:42:00,11.0,8.0,30.29,SE,140,0.0,0.0,88,0.00,,,0.04,,2013-01-03 10:42:00,
2013-01-03 04:52:00,11.0,8.0,30.29,SE,140,0.0,0.0,87,0.00,,,0.04,,2013-01-03 10:52:00,
2013-01-03 05:02:00,9.0,6.0,30.30,SE,140,0.0,0.0,86,0.00,,,0.04,,2013-01-03 11:02:00,
2013-01-03 05:12:00,9.0,6.0,30.30,SE,140,0.0,0.0,86,0.00,,,0.04,,2013-01-03 11:12:00,
2013-01-03 05:22:00,10.0,7.0,30.31,SSE,161,0.0,0.0,87,0.00,,,0.04,,2013-01-03 11:22:00,
2013-01-03 05:33:00,11.0,8.0,30.31,SSE,160,0.0,0.0,88,0.00,,,0.04,,2013-01-03 11:33:00,
2013-01-03 05:43:00,11.0,8.0,30.31,SSE,160,0.0,0.0,88,0.00,,,0.04,,2013-01-03 11:43:00,
2013-01-03 05:53:00,14.0,11.0,30.32,SSE,160,0.0,0.0,88,0.00,,,0.04,,2013-01-03 11:53:00,
2013-01-03 06:03:00,16.0,13.0,30.32,SSE,160,0.0,0.0,89,0.00,,,0.04,,2013-01-03 12:03:00,
2013-01-03 06:12:00,16.0,13.0,30.32,SSE,160,0.0,0.0,89,0.00,,,0.04,,2013-01-03 12:12:00,
2013-01-03 06:22:00,17.0,14.0,30.33,SSE,161,0.0,0.0,89,0.00,,,0.04,,2013-01-03 12:22:00,
2013-01-03 06:32:00,19.0,16.0,30.33,SSE,161,0.0,0.0,89,0.00,,,0.04,,2013-01-03 12:32:00,
2013-01-03 06:42:00,19.0,16.0,30.33,SSE,161,0.0,0.0,89,0.00,,,0.04,,2013-01-03 12:42:00,
2013-01-03 06:52:00,20.0,18.0,30.34,SSE,161,0.0,0.0,90,0.00,,,0.04,,2013-01-03 12:52:00,
2013-01-03 07:02:00,21.0,19.0,30.34,SSE,160,0.0,0.0,90,0.00,,,0.04,,2013-01-03 13:02:00,
2013-01-03 07:13:00,21.0,19.0,30.34,SSE,160,0.0,0.0,90,0.00,,,0.04,,2013-01-03 13:13:00,
2013-01-03 07:22:00,24.0,22.0,30.35,NW,323,0.0,0.0,90,0.00,,,0.04,,2013-01-03 13:22:00,
2013-01-03 07:33:00,23.0,21.0,30.35,NW,325,0.0,0.0,90,0.00,,,0.04,,2013-01-03 13:33:00,
2013-01-03 07:42:00,23.0,21.0,30.35,NW,325,0.0,0.0,90,0.00,,,0.04,,2013-01-03 13:42:00,
2013-01-03 07:52:00,22.0,19.0,30.35,NW,325,0.0,0.0,89,0.00,,,0.04,,2013-01-03 13:52:00,
2013-01-03 08:03:00,20.0,17.0,30.35,NW,325,0.0,0.0,88,0.00,,,0.04,,2013-01-03 14:03:00,
2013-01-03 08:12:00,20.0,17.0,30.35,NW,325,0.0,0.0,88,0.00,,,0.04,,2013-01-03 14:12:00,
2013-01-03 08:22:00,18.0,15.0,30.36,NW,325,0.0,0.0,88,0.00,,,0.04,,2013-01-03 14:22:00,
2013-01-03 08:33:00,18.0,15.0,30.37,NW,325,0.0,0.0,88,0.00,,,0.04,,2013-01-03 14:33:00,
2013-01-03 08:42:00,18.0,15.0,30.37,NW,325,0.0,0.0,88,0.00,,,0.04,,2013-01-03 14:42:00,
2013-01-03 08:53:00,16.0,13.0,30.37,NW,325,0.0,0.0,88,0.00,,,0.04,,2013-01-03 14:53:00,
2013-01-03 09:03:00,17.0,14.0,30.37,NW,325,0.0,0.0,89,0.00,,,0.04,,2013-01-03 15:03:00,
2013-01-03 09:12:00,17.0,14.0,30.37,NW,325,0.0,0.0,89,0.00,,,0.04,,2013-01-03 15:12:00,
2013-01-03 09:22:00,21.0,18.0,30.38,NW,325,0.0,0.0,89,0.00,,,0.04,,2013-01-03 15:22:00,
2013-01-03 09:33:00,22.0,19.0,30.39,NW,325,0.0,0.0,89,0.00,,,0.04,,2013-01-03 15:33:00,
2013-01-03 09:43:00,22.0,19.0,30.39,NW,325,0.0,0.0,89,0.00,,,0.04,,2013-01-03 15:43:00,
2013-01-03 09:53:00,21.0,18.0,30.40,NW,325,0.0,0.0,89,0.00,,,0.04,,2013-01-03 15:53:00,
2013-01-03 10:03:00,23.0,20.0,30.40,NW,323,0.0,0.0,89,0.00,,,0.04,,2013-01-03 16:03:00,
2013-01-03 10:12:00,23.0,20.0,30.40,NW,323,0.0,0.0,89,0.00,,,0.04,,2013-01-03 16:12:00,
2013-01-03 10:22:00,25.0,22.0,30.41,NW,323,0.0,1.0,87,0.00,,,0.04,,2013-01-03 16:22:00,
2013-01-03 10:33:00,27.0,23.0,30.41,NW,322,0.0,0.0,85,0.00,,,0.04,,2013-01-03 16:33:00,
2013-01-03 10:43:00,27.0,23.0,30.41,NW,322,0.0,0.0,85,0.00,,,0.04,,2013-01-03 16:43:00,
2013-01-03 10:52:00,28.0,22.0,30.42,NW,322,0.0,0.0,79,0.00,,,0.04,,2013-01-03 16:52:00,
2013-01-03 11:03:00,29.0,22.0,30.42,North,350,0.0,5.0,75,0.00,,,0.04,,2013-01-03 17:03:00,
2013-01-03 11:12:00,29.0,22.0,30.42,North,350,0.0,5.0,75,0.00,,,0.04,,2013-01-03 17:12:00,
2013-01-03 11:23:00,30.0,22.0,30.45,NW,315,3.0,6.0,72,0.00,,,0.04,,2013-01-03 17:23:00,
2013-01-03 11:33:00,30.0,22.0,30.45,NNW,340,0.0,6.0,71,0.00,,,0.04,,2013-01-03 17:33:00,
2013-01-03 11:43:00,30.0,22.0,30.45,NNW,340,0.0,6.0,71,0.00,,,0.04,,2013-01-03 17:43:00,
2013-01-03 11:52:00,32.0,23.0,30.44,NW,317,0.0,1.0,69,0.00,,,0.04,,2013-01-03 17:52:00,
2013-01-03 12:03:00,32.0,22.0,30.43,NNW,330,2.0,5.0,67,0.00,,,0.04,,2013-01-03 18:03:00,
2013-01-03 12:13:00,32.0,22.0,30.43,NNW,330,2.0,5.0,67,0.00,,,0.04,,2013-01-03 18:13:00,
2013-01-03 12:22:00,33.0,23.0,30.42,NNW,331,2.0,4.0,66,0.01,,,0.05,,2013-01-03 18:22:00,
2013-01-03 12:33:00,32.0,23.0,30.41,NW,309,0.0,7.0,69,0.01,,,0.05,,2013-01-03 18:33:00,
2013-01-03 12:42:00,32.0,23.0,30.41,NW,309,0.0,7.0,69,0.01,,,0.05,,2013-01-03 18:42:00,
2013-01-03 12:53:00,33.0,25.0,30.41,NNW,330,3.0,7.0,71,0.01,,,0.05,,2013-01-03 18:53:00,
2013-01-03 13:03:00,33.0,24.0,30.40,North,11,0.0,1.0,70,0.02,,,0.05,,2013-01-03 19:03:00,
2013-01-03 13:12:00,33.0,24.0,30.40,North,11,0.0,1.0,70,0.02,,,0.05,,2013-01-03 19:12:00,
2013-01-03 13:51:00,34.0,25.0,30.39,NNW,333,0.0,7.0,69,0.01,,,0.05,,2013-01-03 19:51:00,
2013-01-03 14:03:00,34.0,25.0,30.37,NW,310,3.0,6.0,69,0.01,,,0.06,,2013-01-03 20:03:00,
2013-01-03 14:12:00,34.0,25.0,30.37,NW,310,3.0,6.0,69,0.01,,,0.06,,2013-01-03 20:12:00,
2013-01-03 14:22:00,34.0,25.0,30.37,North,355,0.0,1.0,70,0.01,,,0.06,,2013-01-03 20:22:00,
2013-01-03 14:33:00,33.0,25.0,30.37,NNW,327,0.0,6.0,71,0.01,,,0.06,,2013-01-03 20:33:00,
2013-01-03 14:42:00,33.0,25.0,30.37,NNW,327,0.0,6.0,71,0.01,,,0.06,,2013-01-03 20:42:00,
2013-01-03 14:53:00,34.0,26.0,30.37,North,10,0.0,1.0,71,0.01,,,0.06,,2013-01-03 20:53:00,
2013-01-03 15:02:00,34.0,26.0,30.37,North,350,0.0,1.0,71,0.00,,,0.05,,2013-01-03 21:02:00,
2013-01-03 15:12:00,34.0,26.0,30.37,North,350,0.0,1.0,71,0.00,,,0.05,,2013-01-03 21:12:00,
2013-01-03 15:22:00,34.0,25.0,30.37,North,5,0.0,1.0,70,0.00,,,0.05,,2013-01-03 21:22:00,
2013-01-03 15:36:00,34.0,25.0,30.37,North,5,0.0,1.0,70,0.00,,,0.05,,2013-01-03 21:36:00,
2013-01-03 15:48:00,34.0,25.0,30.37,North,5,0.0,1.0,70,0.00,,,0.05,,2013-01-03 21:48:00,
2013-01-03 16:03:00,34.0,26.0,30.37,NNE,16,0.0,0.0,71,0.00,,,0.05,,2013-01-03 22:03:00,
2013-01-03 16:12:00,34.0,26.0,30.37,NNE,16,0.0,0.0,71,0.00,,,0.05,,2013-01-03 22:12:00,
2013-01-03 16:22:00,33.0,25.0,30.38,NNE,16,0.0,0.0,72,0.00,,,0.05,,2013-01-03 22:22:00,
2013-01-03 16:33:00,32.0,24.0,30.38,NNE,17,0.0,0.0,73,0.00,,,0.05,,2013-01-03 22:33:00,
2013-01-03 16:42:00,32.0,24.0,30.38,NNE,17,0.0,0.0,73,0.00,,,0.05,,2013-01-03 22:42:00,
2013-01-03 16:52:00,32.0,24.0,30.38,NNE,17,0.0,0.0,73,0.00,,,0.05,,2013-01-03 22:52:00,
2013-01-03 17:02:00,32.0,24.0,30.38,NNE,17,0.0,0.0,73,0.00,,,0.03,,2013-01-03 23:02:00,
2013-01-03 17:12:00,32.0,24.0,30.38,NNE,17,0.0,0.0,73,0.00,,,0.03,,2013-01-03 23:12:00,
2013-01-03 17:22:00,30.0,23.0,30.38,NNE,17,0.0,0.0,76,0.00,,,0.03,,2013-01-03 23:22:00,
2013-01-03 17:33:00,29.0,23.0,30.38,NNE,17,0.0,0.0,78,0.00,,,0.03,,2013-01-03 23:33:00,
2013-01-03 17:43:00,29.0,23.0,30.38,NNE,17,0.0,0.0,78,0.00,,,0.03,,2013-01-03 23:43:00,
2013-01-03 17:52:00,28.0,22.0,30.38,NNE,17,0.0,0.0,78,0.00,,,0.03,,2013-01-03 23:52:00,
2013-01-03 18:03:00,27.0,22.0,30.39,NNE,17,0.0,0.0,80,0.00,,,0.03,,2013-01-04 00:03:00,
2013-01-03 18:12:00,27.0,22.0,30.39,NNE,17,0.0,0.0,80,0.00,,,0.03,,2013-01-04 00:12:00,
2013-01-03 18:22:00,25.0,20.0,30.39,NNE,17,0.0,0.0,82,0.00,,,0.03,,2013-01-04 00:22:00,
2013-01-03 18:32:00,24.0,20.0,30.39,NNE,17,0.0,0.0,83,0.00,,,0.03,,2013-01-04 00:32:00,
2013-01-03 18:42:00,24.0,20.0,30.39,NNE,17,0.0,0.0,83,0.00,,,0.03,,2013-01-04 00:42:00,
2013-01-03 18:52:00,23.0,18.0,30.39,NNE,17,0.0,0.0,82,0.00,,,0.03,,2013-01-04 00:52:00,
2013-01-03 19:02:00,22.0,18.0,30.40,NNE,17,0.0,0.0,84,0.00,,,0.03,,2013-01-04 01:02:00,
2013-01-03 19:12:00,22.0,18.0,30.40,NNE,17,0.0,0.0,84,0.00,,,0.03,,2013-01-04 01:12:00,
2013-01-03 19:22:00,20.0,16.0,30.40,NNE,17,0.0,0.0,84,0.00,,,0.03,,2013-01-04 01:22:00,
2013-01-03 19:32:00,20.0,16.0,30.40,SE,133,0.0,0.0,85,0.00,,,0.03,,2013-01-04 01:32:00,
2013-01-03 19:42:00,20.0,16.0,30.40,SE,133,0.0,0.0,85,0.00,,,0.03,,2013-01-04 01:42:00,
2013-01-03 19:52:00,18.0,14.0,30.40,SE,133,0.0,0.0,85,0.00,,,0.03,,2013-01-04 01:52:00,
2013-01-03 20:02:00,17.0,14.0,30.40,SE,133,0.0,0.0,86,0.00,,,0.03,,2013-01-04 02:02:00,
2013-01-03 20:12:00,17.0,14.0,30.40,SE,133,0.0,0.0,86,0.00,,,0.03,,2013-01-04 02:12:00,
2013-01-03 20:22:00,19.0,16.0,30.39,SE,133,0.0,0.0,88,0.00,,,0.03,,2013-01-04 02:22:00,
2013-01-03 20:32:00,18.0,15.0,30.39,SE,133,0.0,0.0,87,0.00,,,0.03,,2013-01-04 02:32:00,
2013-01-03 20:42:00,18.0,15.0,30.39,SE,133,0.0,0.0,87,0.00,,,0.03,,2013-01-04 02:42:00,
2013-01-03 20:52:00,18.0,15.0,30.40,SE,133,0.0,0.0,88,0.00,,,0.03,,2013-01-04 02:52:00,
2013-01-03 21:02:00,16.0,13.0,30.39,SE,133,0.0,0.0,87,0.00,,,0.03,,2013-01-04 03:02:00,
2013-01-03 21:12:00,16.0,13.0,30.39,SE,133,0.0,0.0,87,0.00,,,0.03,,2013-01-04 03:12:00,
2013-01-03 21:22:00,16.0,13.0,30.38,SE,133,0.0,0.0,87,0.00,,,0.03,,2013-01-04 03:22:00,
2013-01-03 21:32:00,16.0,13.0,30.38,SE,133,0.0,0.0,88,0.00,,,0.03,,2013-01-04 03:32:00,
2013-01-03 21:42:00,16.0,13.0,30.38,SE,133,0.0,0.0,88,0.00,,,0.03,,2013-01-04 03:42:00,
2013-01-03 21:52:00,16.0,13.0,30.39,SE,133,0.0,0.0,88,0.00,,,0.03,,2013-01-04 03:52:00,
2013-01-03 22:02:00,15.0,12.0,30.38,SE,133,0.0,0.0,88,0.00,,,0.03,,2013-01-04 04:02:00,
2013-01-03 22:12:00,15.0,12.0,30.38,SE,133,0.0,0.0,88,0.00,,,0.03,,2013-01-04 04:12:00,
2013-01-03 22:22:00,13.0,10.0,30.38,SE,133,0.0,0.0,87,0.00,,,0.03,,2013-01-04 04:22:00,
2013-01-03 22:32:00,13.0,10.0,30.39,SE,133,0.0,0.0,87,0.00,,,0.03,,2013-01-04 04:32:00,
2013-01-03 22:42:00,13.0,10.0,30.39,SE,133,0.0,0.0,87,0.00,,,0.03,,2013-01-04 04:42:00,
2013-01-03 22:52:00,14.0,11.0,30.36,SE,133,0.0,0.0,88,0.00,,,0.03,,2013-01-04 04:52:00,
2013-01-03 23:03:00,12.0,9.0,30.36,SE,133,0.0,0.0,87,0.00,,,0.03,,2013-01-04 05:03:00,
2013-01-03 23:12:00,12.0,9.0,30.36,SE,133,0.0,0.0,87,0.00,,,0.03,,2013-01-04 05:12:00,
2013-01-03 23:22:00,11.0,8.0,30.36,SE,133,0.0,0.0,86,0.00,,,0.03,,2013-01-04 05:22:00,
2013-01-03 23:33:00,10.0,7.0,30.36,SE,133,0.0,0.0,86,0.00,,,0.03,,2013-01-04 05:33:00,
2013-01-03 23:42:00,10.0,7.0,30.36,SE,133,0.0,0.0,86,0.00,,,0.03,,2013-01-04 05:42:00,
2013-01-03 23:52:00,11.0,8.0,30.36,SE,133,0.0,0.0,87,0.00,,,0.03,,2013-01-04 05:52:00,